KBKL/BKL METAR and TAF weather

Enter ICAO airport designator
Station Type Date Time Source
KBKL METAR 2021/09/16 19:53 UTC NOAA

KBKL 161953Z 02013G21KT 9SM CLR 24/17 A3011 RMK AO2 SLP194 T02390172


Station Type Date Time Source
KBKL Decoded METAR 2021/09/16 19:53 UTC NOAA

CLEVELAND BURKE LAKEFRONT, OH, United States (KBKL) 41-32N 81-40W 184M
Sep 16, 2021 - 03:53 PM EDT / 2021.09.16 1953 UTC
Wind: from the NNE (020 degrees) at 15 MPH (13 KT) gusting to 24 MPH (21 KT):0
Visibility: 9 mile(s):0
Sky conditions: clear
Temperature: 75.0 F (23.9 C)
Dew Point: 63.0 F (17.2 C)
Relative Humidity: 66%
Pressure (altimeter): 30.11 in. Hg (1019 hPa)
ob: KBKL 161953Z 02013G21KT 9SM CLR 24/17 A3011 RMK AO2 SLP194 T02390172
cycle: 20

Station Type Date Time Source
KBKL TAF UTC NOAA

Error!

Example: see airport list